createdAt,value
2019-01-31T00:02:17.930Z,99.90
2019-01-31T00:04:55.608Z,99.90
2019-01-31T00:07:35.949Z,99.90
2019-01-31T00:10:10.376Z,99.90
2019-01-31T00:13:13.937Z,99.90
2019-01-31T00:15:51.369Z,99.90
2019-01-31T00:18:25.764Z,99.90
2019-01-31T00:21:03.089Z,99.90
2019-01-31T00:23:46.596Z,99.90
2019-01-31T00:26:21.209Z,99.90
2019-01-31T00:29:01.827Z,99.90
2019-01-31T00:31:46.899Z,99.90
2019-01-31T00:34:30.519Z,99.90
2019-01-31T00:37:05.021Z,99.90
2019-01-31T00:39:59.560Z,99.90
2019-01-31T00:42:49.120Z,99.90
2019-01-31T00:45:29.704Z,99.90
2019-01-31T00:48:19.356Z,99.90
2019-01-31T00:51:07.510Z,99.90
2019-01-31T00:53:39.199Z,99.90
2019-01-31T00:56:18.336Z,99.90
2019-01-31T00:59:04.690Z,99.90
2019-01-31T01:01:45.187Z,99.90
2019-01-31T01:04:47.776Z,99.90
2019-01-31T01:07:31.413Z,99.90
2019-01-31T01:10:10.201Z,99.90
2019-01-31T01:13:01.770Z,99.90
2019-01-31T01:15:54.461Z,99.90
2019-01-31T01:18:28.759Z,99.90
2019-01-31T01:21:10.194Z,99.90
2019-01-31T01:23:47.514Z,99.90
2019-01-31T01:26:21.999Z,99.90
2019-01-31T01:29:02.449Z,99.90
2019-01-31T01:32:05.248Z,99.90
2019-01-31T01:34:45.792Z,99.90
2019-01-31T01:37:29.473Z,99.90
2019-01-31T01:40:20.535Z,99.90
2019-01-31T01:42:55.326Z,99.90
2019-01-31T01:45:38.322Z,99.90
2019-01-31T01:48:12.800Z,99.90
2019-01-31T01:50:47.228Z,99.90
2019-01-31T01:53:21.998Z,99.90
2019-01-31T01:56:05.871Z,99.90
2019-01-31T01:58:49.635Z,99.90
2019-01-31T02:01:33.393Z,99.90
2019-01-31T02:04:13.807Z,99.90
2019-01-31T02:06:53.700Z,99.90
2019-01-31T02:09:31.235Z,99.90
2019-01-31T02:12:14.884Z,99.90
2019-01-31T02:14:52.364Z,99.90
2019-01-31T02:17:39.050Z,99.90
2019-01-31T02:20:30.043Z,99.90
2019-01-31T02:23:07.607Z,99.90
2019-01-31T02:25:48.204Z,99.90
2019-01-31T02:28:38.054Z,99.90
2019-01-31T02:31:27.842Z,99.90
2019-01-31T02:34:18.023Z,99.90
2019-01-31T02:43:42.627Z,99.90
2019-01-31T02:46:36.404Z,99.90
2019-01-31T02:49:30.925Z,99.90
2019-01-31T02:52:04.743Z,99.90
2019-01-31T02:54:42.783Z,99.90
2019-01-31T02:57:24.363Z,99.90
2019-01-31T03:00:20.534Z,99.90
2019-01-31T03:02:58.935Z,99.90
2019-01-31T03:05:47.915Z,99.90
2019-01-31T03:08:41.017Z,99.90
2019-01-31T03:11:37.031Z,99.90
2019-01-31T03:14:10.203Z,99.90
2019-01-31T03:16:57.525Z,99.90
2019-01-31T03:19:41.686Z,99.90
2019-01-31T03:22:25.287Z,99.90
2019-01-31T03:24:57.080Z,99.90
2019-01-31T03:27:37.957Z,99.90
2019-01-31T03:30:36.895Z,99.90
2019-01-31T03:33:24.950Z,99.90
2019-01-31T03:36:05.686Z,99.90
2019-01-31T03:38:40.216Z,99.90
2019-01-31T03:41:24.173Z,99.90
2019-01-31T03:44:11.122Z,99.90
2019-01-31T03:46:44.526Z,99.90
2019-01-31T03:49:22.023Z,99.90
2019-01-31T03:52:11.758Z,99.90
2019-01-31T03:55:05.805Z,99.90
2019-01-31T03:57:40.449Z,99.90
2019-01-31T04:00:27.305Z,99.90
2019-01-31T04:03:07.976Z,99.90
2019-01-31T04:05:42.970Z,99.90
2019-01-31T04:08:11.699Z,99.90
2019-01-31T04:10:46.181Z,99.90
2019-01-31T04:13:16.665Z,99.90
2019-01-31T04:15:48.352Z,99.90
2019-01-31T04:18:23.045Z,99.90
2019-01-31T04:20:55.401Z,99.90
2019-01-31T04:23:25.440Z,99.90
2019-01-31T04:25:54.317Z,99.90
2019-01-31T04:28:23.106Z,99.90
2019-01-31T04:30:56.543Z,99.90
2019-01-31T04:33:28.307Z,99.90
2019-01-31T04:35:58.579Z,99.90
2019-01-31T04:38:27.360Z,99.90
2019-01-31T04:40:56.050Z,99.90
2019-01-31T04:43:24.741Z,99.90
2019-01-31T04:45:53.461Z,99.90
2019-01-31T04:48:27.860Z,99.90
2019-01-31T04:50:56.743Z,99.90
2019-01-31T04:53:25.571Z,99.90
2019-01-31T04:55:54.283Z,99.90
2019-01-31T04:58:23.054Z,99.90
2019-01-31T05:00:51.745Z,99.90
2019-01-31T05:03:20.538Z,99.90
2019-01-31T05:05:49.254Z,99.90
2019-01-31T05:08:17.986Z,99.90
2019-01-31T05:10:46.760Z,99.90
2019-01-31T05:13:15.527Z,99.90
2019-01-31T05:15:47.873Z,99.90
2019-01-31T05:18:16.379Z,99.90
2019-01-31T05:20:44.834Z,99.90
2019-01-31T05:23:13.240Z,99.90
2019-01-31T05:25:41.664Z,99.90
2019-01-31T05:28:10.231Z,99.90
2019-01-31T05:30:38.731Z,99.90
2019-01-31T05:33:07.212Z,99.90
2019-01-31T05:35:35.717Z,99.90
2019-01-31T05:38:04.235Z,99.90
2019-01-31T05:40:32.747Z,99.90
2019-01-31T05:43:01.252Z,99.90
2019-01-31T05:45:29.850Z,99.90
2019-01-31T05:47:58.434Z,99.90
2019-01-31T05:50:28.185Z,99.90
2019-01-31T05:52:56.802Z,99.90
2019-01-31T05:55:25.323Z,99.90
2019-01-31T05:57:53.922Z,99.90
2019-01-31T06:00:25.048Z,99.90
2019-01-31T06:02:53.581Z,99.90
2019-01-31T06:05:22.021Z,99.90
2019-01-31T06:07:50.610Z,99.90
2019-01-31T06:10:19.211Z,99.90
2019-01-31T06:12:47.824Z,99.90
2019-01-31T06:15:19.843Z,99.90
2019-01-31T06:17:48.323Z,99.90
2019-01-31T06:20:24.782Z,99.90
2019-01-31T06:22:53.321Z,99.90
2019-01-31T06:25:22.083Z,99.90
2019-01-31T06:27:50.603Z,99.90
2019-01-31T06:30:20.153Z,99.90
2019-01-31T06:32:50.483Z,99.90
2019-01-31T06:35:18.881Z,99.90
2019-01-31T06:37:47.380Z,99.90
2019-01-31T06:40:18.476Z,99.90
2019-01-31T06:42:47.040Z,99.90
2019-01-31T06:45:20.859Z,99.90
2019-01-31T06:47:49.282Z,99.90
2019-01-31T06:50:17.689Z,99.90
2019-01-31T06:52:46.135Z,99.90
2019-01-31T06:55:14.532Z,99.90
2019-01-31T06:57:43.260Z,99.90
2019-01-31T07:00:17.175Z,99.90
2019-01-31T07:02:45.615Z,99.90
2019-01-31T07:05:14.206Z,99.90
2019-01-31T07:07:42.849Z,99.90
2019-01-31T07:10:17.473Z,99.90
2019-01-31T07:12:46.087Z,99.90
2019-01-31T07:15:15.215Z,99.90
2019-01-31T07:17:44.727Z,99.90
2019-01-31T07:20:15.907Z,99.90
2019-01-31T07:22:44.619Z,99.90
2019-01-31T07:25:19.123Z,99.90
2019-01-31T07:27:47.636Z,99.90
2019-01-31T07:30:18.169Z,99.90
2019-01-31T07:32:46.754Z,99.90
2019-01-31T07:35:15.647Z,99.90
2019-01-31T07:37:44.125Z,99.90
2019-01-31T07:40:18.437Z,99.90
2019-01-31T07:42:47.078Z,99.90
2019-01-31T07:45:18.773Z,99.90
2019-01-31T07:47:47.190Z,99.90
2019-01-31T07:50:18.320Z,99.90
2019-01-31T07:52:47.095Z,99.90
2019-01-31T07:55:16.399Z,99.90
2019-01-31T07:57:49.652Z,99.90
2019-01-31T08:00:25.441Z,99.90
2019-01-31T08:02:53.925Z,99.90
2019-01-31T08:05:23.772Z,99.90
2019-01-31T08:07:54.253Z,99.90
2019-01-31T08:10:31.549Z,99.90
2019-01-31T08:13:00.305Z,99.90
2019-01-31T08:15:29.048Z,99.90
2019-01-31T08:17:57.749Z,99.90
2019-01-31T08:20:26.522Z,99.90
2019-01-31T08:22:55.177Z,99.90
2019-01-31T08:25:25.797Z,99.90
2019-01-31T08:27:56.514Z,99.90
2019-01-31T08:30:54.974Z,99.90
2019-01-31T08:33:23.764Z,99.90
2019-01-31T08:35:54.173Z,99.90
2019-01-31T08:38:22.869Z,99.90
2019-01-31T08:40:51.705Z,99.90
2019-01-31T08:43:20.773Z,99.90
2019-01-31T08:45:50.351Z,99.90
2019-01-31T08:48:18.979Z,99.90
2019-01-31T08:50:48.539Z,99.90
2019-01-31T08:53:17.413Z,99.90
2019-01-31T08:55:47.635Z,99.70
2019-01-31T08:58:16.500Z,99.90
2019-01-31T09:00:45.033Z,99.90
2019-01-31T09:03:13.537Z,99.90
2019-01-31T09:05:42.320Z,99.90
2019-01-31T09:08:10.963Z,99.90
2019-01-31T09:10:40.651Z,99.90
2019-01-31T09:13:11.629Z,96.50
2019-01-31T09:15:42.007Z,98.00
2019-01-31T09:18:10.593Z,99.20
2019-01-31T09:20:42.717Z,98.40
2019-01-31T09:23:37.478Z,99.90
2019-01-31T09:26:27.174Z,99.90
2019-01-31T09:29:29.267Z,99.50
2019-01-31T09:32:07.026Z,98.40
2019-01-31T09:34:44.570Z,98.90
2019-01-31T09:37:16.457Z,98.50
2019-01-31T09:39:56.999Z,99.90
2019-01-31T09:42:37.592Z,95.60
2019-01-31T09:45:42.615Z,94.10
2019-01-31T09:48:29.546Z,91.90
2019-01-31T09:51:10.293Z,92.60
2019-01-31T09:53:50.842Z,91.10
2019-01-31T09:56:37.641Z,91.30
2019-01-31T09:59:33.321Z,89.00
2019-01-31T10:02:37.695Z,90.20
2019-01-31T10:05:18.569Z,89.70
2019-01-31T10:08:06.689Z,85.50
2019-01-31T10:10:54.674Z,88.00
2019-01-31T10:13:37.962Z,82.10
2019-01-31T10:16:21.702Z,70.70
2019-01-31T10:18:59.315Z,57.50
2019-01-31T10:21:52.197Z,48.70
2019-01-31T10:24:38.721Z,45.50
2019-01-31T10:27:32.898Z,42.60
2019-01-31T10:30:21.049Z,45.90
2019-01-31T10:33:13.894Z,51.30
2019-01-31T10:35:51.455Z,56.40
2019-01-31T10:38:25.965Z,61.00
2019-01-31T10:41:06.721Z,64.60
2019-01-31T10:44:17.510Z,66.50
2019-01-31T10:46:42.639Z,69.90
2019-01-31T10:49:23.344Z,69.10
2019-01-31T10:52:09.433Z,70.70
2019-01-31T10:54:56.337Z,69.90
2019-01-31T10:57:28.060Z,72.80
2019-01-31T11:00:16.521Z,71.30
2019-01-31T11:03:06.154Z,69.30
2019-01-31T11:05:37.827Z,67.10
2019-01-31T11:08:21.341Z,68.20
2019-01-31T11:11:04.903Z,65.50
2019-01-31T11:13:48.657Z,66.50
2019-01-31T11:16:29.354Z,64.50
2019-01-31T11:19:18.323Z,66.20
2019-01-31T11:21:55.859Z,67.50
2019-01-31T11:24:42.480Z,68.70
2019-01-31T11:27:25.969Z,68.40
2019-01-31T11:30:03.654Z,69.00
2019-01-31T11:32:51.594Z,67.50
2019-01-31T11:35:23.242Z,66.80
2019-01-31T11:38:06.929Z,62.40
2019-01-31T11:40:56.367Z,59.80
2019-01-31T11:43:47.350Z,56.50
2019-01-31T11:46:30.790Z,56.60
2019-01-31T11:49:17.280Z,59.20
2019-01-31T11:52:11.189Z,61.00
2019-01-31T11:54:45.644Z,65.20
2019-01-31T11:57:35.342Z,65.50
2019-01-31T12:00:06.553Z,66.60
2019-01-31T12:02:35.071Z,68.30
2019-01-31T12:05:03.677Z,68.60
2019-01-31T12:07:32.329Z,67.80
2019-01-31T12:10:00.915Z,68.10
2019-01-31T12:12:29.478Z,68.80
2019-01-31T12:14:58.300Z,69.70
2019-01-31T12:17:26.931Z,70.30
2019-01-31T12:19:55.667Z,70.20
2019-01-31T12:22:24.283Z,70.80
2019-01-31T12:24:52.960Z,71.20
2019-01-31T12:27:21.693Z,71.20
2019-01-31T12:29:50.462Z,70.60
2019-01-31T12:32:19.891Z,71.20
2019-01-31T12:34:48.497Z,72.50
2019-01-31T12:37:17.176Z,73.10
2019-01-31T12:39:45.789Z,73.40
2019-01-31T12:42:14.288Z,74.00
2019-01-31T12:44:42.712Z,74.50
2019-01-31T12:47:11.115Z,73.40
2019-01-31T12:49:40.107Z,70.70
2019-01-31T12:52:08.511Z,72.80
2019-01-31T12:54:36.888Z,74.80
2019-01-31T12:57:05.366Z,76.90
2019-01-31T12:59:33.743Z,77.90
2019-01-31T13:02:02.649Z,78.10
2019-01-31T13:04:31.055Z,79.50
2019-01-31T13:06:59.415Z,79.70
2019-01-31T13:09:28.490Z,80.70
2019-01-31T13:11:57.212Z,81.60
2019-01-31T13:14:28.346Z,82.70
2019-01-31T13:16:55.686Z,81.40
2019-01-31T13:19:24.058Z,83.10
2019-01-31T13:21:52.466Z,84.70
2019-01-31T13:24:20.927Z,84.60
2019-01-31T13:26:49.334Z,85.70
2019-01-31T13:29:17.818Z,85.70
2019-01-31T13:31:46.397Z,84.40
2019-01-31T13:34:14.899Z,81.60
2019-01-31T13:36:43.683Z,81.20
2019-01-31T13:39:14.639Z,79.20
2019-01-31T13:41:44.866Z,79.40
2019-01-31T13:44:13.512Z,78.10
2019-01-31T13:46:42.121Z,78.50
2019-01-31T13:49:46.563Z,79.50
2019-01-31T13:52:15.849Z,81.70
2019-01-31T13:54:44.437Z,82.70
2019-01-31T13:57:13.027Z,83.60
2019-01-31T13:59:43.286Z,84.10
2019-01-31T14:02:11.867Z,83.20
2019-01-31T14:04:44.896Z,84.60
2019-01-31T14:07:13.482Z,85.00
2019-01-31T14:09:44.982Z,86.40
2019-01-31T14:12:13.784Z,86.50
2019-01-31T14:14:43.902Z,86.60
2019-01-31T14:17:12.635Z,87.40
2019-01-31T14:19:41.224Z,88.10
2019-01-31T14:22:10.157Z,88.70
2019-01-31T14:24:38.667Z,88.80
2019-01-31T14:27:07.091Z,88.60
2019-01-31T14:29:42.458Z,89.20
2019-01-31T14:32:15.603Z,89.50
2019-01-31T14:34:44.039Z,90.00
2019-01-31T14:37:15.587Z,89.70
2019-01-31T14:39:44.166Z,89.80
2019-01-31T14:42:12.824Z,90.10
2019-01-31T14:44:43.070Z,90.40
2019-01-31T14:47:18.843Z,90.40
2019-01-31T14:49:56.434Z,90.50
2019-01-31T14:52:29.738Z,90.30
2019-01-31T14:55:04.592Z,90.30
2019-01-31T14:57:34.800Z,90.10
2019-01-31T15:00:54.970Z,89.10
2019-01-31T15:03:15.309Z,86.00
2019-01-31T15:05:44.574Z,85.50
2019-01-31T15:08:21.629Z,85.30
2019-01-31T15:11:08.811Z,84.40
2019-01-31T15:16:31.216Z,84.20
2019-01-31T15:19:04.311Z,85.60
2019-01-31T15:21:37.012Z,86.90
2019-01-31T15:24:10.249Z,88.20
2019-01-31T15:26:57.370Z,89.50
2019-01-31T15:29:26.895Z,90.20
2019-01-31T15:32:14.742Z,90.90
2019-01-31T15:35:15.007Z,91.40
2019-01-31T15:41:27.408Z,92.70
2019-01-31T15:46:54.722Z,93.60
2019-01-31T15:49:34.705Z,94.00
2019-01-31T15:58:16.831Z,94.60
2019-01-31T16:00:59.340Z,94.80
2019-01-31T16:03:31.509Z,95.20
2019-01-31T16:21:02.096Z,96.60
2019-01-31T16:23:34.160Z,96.80
2019-01-31T16:26:08.113Z,97.10
2019-01-31T16:28:39.815Z,97.40
2019-01-31T16:34:17.624Z,97.80
2019-01-31T16:39:37.902Z,98.40
2019-01-31T16:42:07.160Z,98.70
2019-01-31T16:47:25.317Z,99.40
2019-01-31T16:49:59.795Z,99.80
2019-01-31T16:52:30.272Z,99.90
2019-01-31T16:54:59.165Z,99.90
2019-01-31T16:57:33.771Z,99.90
2019-01-31T17:00:03.659Z,99.90
2019-01-31T17:02:33.929Z,99.90
2019-01-31T17:08:19.256Z,99.90
2019-01-31T17:10:51.488Z,99.90
2019-01-31T17:13:21.771Z,99.90
2019-01-31T17:15:53.003Z,99.90
2019-01-31T17:18:27.722Z,99.90
2019-01-31T17:20:59.007Z,99.90
2019-01-31T17:23:31.461Z,99.90
2019-01-31T17:26:02.568Z,99.90
2019-01-31T17:28:32.146Z,99.90
2019-01-31T17:31:05.150Z,99.90
2019-01-31T17:33:33.795Z,99.90
2019-01-31T17:36:02.789Z,99.90
2019-01-31T17:38:33.226Z,99.90
2019-01-31T17:41:01.686Z,99.90
2019-01-31T17:43:30.080Z,99.90
2019-01-31T17:45:58.998Z,99.90
2019-01-31T17:48:27.422Z,99.90
2019-01-31T17:50:55.866Z,99.90
2019-01-31T17:53:24.242Z,99.90
2019-01-31T17:55:52.631Z,99.90
2019-01-31T17:58:21.057Z,99.90
2019-01-31T18:00:52.748Z,99.90
2019-01-31T18:03:21.133Z,99.90
2019-01-31T18:05:49.567Z,99.90
2019-01-31T18:08:17.968Z,99.90
2019-01-31T18:10:46.504Z,99.90
2019-01-31T18:13:15.169Z,99.90
2019-01-31T18:15:43.781Z,99.90
2019-01-31T18:18:12.174Z,99.90
2019-01-31T18:20:40.563Z,99.90
2019-01-31T18:23:09.012Z,99.90
2019-01-31T18:25:37.511Z,99.90
2019-01-31T18:28:05.981Z,99.90
2019-01-31T18:30:36.407Z,99.90
2019-01-31T18:33:05.421Z,99.90
2019-01-31T18:35:33.854Z,99.90
2019-01-31T18:38:02.359Z,99.90
2019-01-31T18:40:32.867Z,99.90
2019-01-31T18:43:01.346Z,99.90
2019-01-31T18:45:34.691Z,99.90
2019-01-31T18:48:03.126Z,99.90
2019-01-31T18:50:34.311Z,99.90
2019-01-31T18:53:02.803Z,99.90
2019-01-31T18:55:31.229Z,99.90
2019-01-31T18:57:59.986Z,99.90
2019-01-31T19:00:43.290Z,99.90
2019-01-31T19:03:11.711Z,99.90
2019-01-31T19:05:40.310Z,99.90
2019-01-31T19:08:10.355Z,99.90
2019-01-31T19:10:43.333Z,99.90
2019-01-31T19:13:09.886Z,99.90
2019-01-31T19:15:38.919Z,99.90
2019-01-31T19:18:07.535Z,99.90
2019-01-31T19:20:36.488Z,99.90
2019-01-31T19:23:07.016Z,99.90
2019-01-31T19:25:35.628Z,99.90
2019-01-31T19:28:06.522Z,99.90
2019-01-31T19:30:40.190Z,99.90
2019-01-31T19:35:48.171Z,99.90
2019-01-31T19:38:16.930Z,99.90
2019-01-31T19:40:45.981Z,99.90
2019-01-31T19:43:33.615Z,99.90
2019-01-31T19:46:02.435Z,99.90
2019-01-31T19:51:26.286Z,99.90
2019-01-31T19:53:55.085Z,99.90
2019-01-31T19:56:23.943Z,99.90
2019-01-31T19:58:52.678Z,99.90
2019-01-31T20:01:22.453Z,99.90
2019-01-31T20:03:51.123Z,99.90
2019-01-31T20:06:21.382Z,99.90
2019-01-31T20:08:57.000Z,99.90
2019-01-31T20:11:27.458Z,99.90
2019-01-31T20:14:02.062Z,99.90
2019-01-31T20:16:43.040Z,99.90
2019-01-31T20:19:15.933Z,99.90
2019-01-31T20:21:52.048Z,99.90
2019-01-31T20:24:32.250Z,99.90
2019-01-31T20:27:13.621Z,99.90
2019-01-31T20:29:49.790Z,99.90
2019-01-31T20:35:12.778Z,99.90
2019-01-31T20:40:54.170Z,99.90
2019-01-31T20:43:50.999Z,99.90
2019-01-31T20:46:08.342Z,99.90
2019-01-31T20:52:01.219Z,99.90
2019-01-31T20:54:43.000Z,99.90
2019-01-31T20:57:24.717Z,99.90
2019-01-31T21:02:55.881Z,99.90
2019-01-31T21:05:47.861Z,99.90
2019-01-31T21:13:47.859Z,99.90
2019-01-31T21:16:28.037Z,99.90
2019-01-31T21:19:14.692Z,99.90
2019-01-31T21:21:56.993Z,99.90
2019-01-31T21:24:25.702Z,99.90
2019-01-31T21:26:54.449Z,99.90
2019-01-31T21:29:27.564Z,99.90
2019-01-31T21:32:03.857Z,99.90
2019-01-31T21:34:34.128Z,99.90
2019-01-31T21:37:04.777Z,99.90
2019-01-31T22:03:48.244Z,99.90
2019-01-31T22:09:15.779Z,99.90
2019-01-31T22:11:44.388Z,99.90
2019-01-31T22:14:13.068Z,99.90
2019-01-31T22:16:42.155Z,99.90
2019-01-31T22:19:10.822Z,99.90
2019-01-31T22:21:39.591Z,99.90
2019-01-31T22:24:08.279Z,99.90
2019-01-31T22:26:37.029Z,99.90
2019-01-31T22:29:08.285Z,99.90
2019-01-31T22:31:36.002Z,99.90
2019-01-31T22:34:07.554Z,99.90
2019-01-31T22:36:36.150Z,99.90
2019-01-31T22:39:07.186Z,99.90
2019-01-31T22:41:35.880Z,99.90
2019-01-31T22:44:04.585Z,99.90
2019-01-31T22:46:33.595Z,99.90
2019-01-31T22:49:02.260Z,99.90
2019-01-31T22:51:30.910Z,99.90
2019-01-31T22:53:59.559Z,99.90
2019-01-31T22:56:28.332Z,99.90
2019-01-31T22:58:57.034Z,99.90
2019-01-31T23:01:27.392Z,99.90
2019-01-31T23:03:56.156Z,99.90
2019-01-31T23:06:24.842Z,99.90
2019-01-31T23:08:53.574Z,99.90
2019-01-31T23:11:22.390Z,99.90
2019-01-31T23:13:51.094Z,99.90
2019-01-31T23:16:19.562Z,99.90
2019-01-31T23:18:48.137Z,99.90
2019-01-31T23:21:16.720Z,99.90
2019-01-31T23:23:45.330Z,99.90
2019-01-31T23:26:13.873Z,99.90
2019-01-31T23:28:43.300Z,99.90
2019-01-31T23:31:11.891Z,99.90
2019-01-31T23:33:41.224Z,99.90
2019-01-31T23:36:09.873Z,99.90
2019-01-31T23:38:38.480Z,99.90
2019-01-31T23:41:07.065Z,99.90
2019-01-31T23:43:35.683Z,99.90
2019-01-31T23:46:04.410Z,99.90
2019-01-31T23:48:33.896Z,99.90
2019-01-31T23:51:02.530Z,99.90
2019-01-31T23:53:31.045Z,99.90
2019-01-31T23:55:59.653Z,99.90
2019-01-31T23:58:28.232Z,99.90
